createdAt,value
2022-10-13T00:03:29.795Z,97726.20
2022-10-13T00:13:33.769Z,97728.88
2022-10-13T00:23:38.704Z,97722.77
2022-10-13T00:33:43.150Z,97716.88
2022-10-13T00:43:57.556Z,97716.08
2022-10-13T00:54:03.830Z,97708.36
2022-10-13T01:04:07.436Z,97701.35
2022-10-13T01:14:29.622Z,97695.70
2022-10-13T01:24:33.101Z,97685.20
2022-10-13T01:35:01.507Z,97685.38
2022-10-13T01:45:08.840Z,97673.38
2022-10-13T01:55:13.474Z,97671.58
2022-10-13T02:05:35.036Z,97673.55
2022-10-13T02:15:46.566Z,97668.45
2022-10-13T02:25:51.569Z,97665.67
2022-10-13T02:35:55.122Z,97647.70
2022-10-13T02:45:58.702Z,97640.64
2022-10-13T02:56:02.265Z,97645.36
2022-10-13T03:06:08.780Z,97646.53
2022-10-13T03:16:12.448Z,97648.05
2022-10-13T03:26:16.731Z,97647.10
2022-10-13T03:36:21.007Z,97643.40
2022-10-13T03:46:29.565Z,97639.29
2022-10-13T03:56:33.870Z,97633.78
2022-10-13T04:06:37.434Z,97633.38
2022-10-13T04:16:40.998Z,97628.80
2022-10-13T04:26:45.479Z,97627.77
2022-10-13T04:36:52.322Z,97622.67
2022-10-13T04:46:55.981Z,97624.58
2022-10-13T04:57:00.010Z,97627.04
2022-10-13T05:07:17.490Z,97625.13
2022-10-13T05:17:23.094Z,97624.87
2022-10-13T05:27:26.818Z,97618.67
2022-10-13T05:37:30.581Z,97621.48
2022-10-13T05:47:34.477Z,97624.84
2022-10-13T05:57:42.503Z,97622.85
2022-10-13T06:07:48.392Z,97633.17
2022-10-13T06:17:52.408Z,97632.17
2022-10-13T06:28:02.960Z,97636.95
2022-10-13T06:38:06.819Z,97633.58
2022-10-13T06:48:12.297Z,97630.67
2022-10-13T06:58:15.973Z,97622.95
2022-10-13T07:08:21.054Z,97614.25
2022-10-13T07:18:25.052Z,97597.15
2022-10-13T07:28:29.784Z,97590.95
2022-10-13T07:38:33.801Z,97595.89
2022-10-13T07:48:37.687Z,97583.91
2022-10-13T07:58:44.588Z,97580.13
2022-10-13T08:08:48.785Z,97567.27
2022-10-13T08:18:53.879Z,97558.83
2022-10-13T08:29:16.868Z,97548.39
2022-10-13T08:39:23.426Z,97529.23
2022-10-13T08:49:28.821Z,97520.19
2022-10-13T08:59:33.020Z,97513.81
2022-10-13T09:09:38.816Z,97512.42
2022-10-13T09:19:42.908Z,97504.79
2022-10-13T09:29:46.766Z,97493.66
2022-10-13T09:40:19.975Z,97486.67
2022-10-13T09:50:30.116Z,97479.58
2022-10-13T10:00:34.245Z,97466.71
2022-10-13T10:10:41.588Z,97454.33
2022-10-13T10:21:21.437Z,97436.42
2022-10-13T10:31:46.910Z,97426.21
2022-10-13T10:42:04.780Z,97413.33
2022-10-13T10:52:18.128Z,97407.02
2022-10-13T11:02:30.640Z,97399.00
2022-10-13T11:12:52.808Z,97389.08
2022-10-13T11:23:00.322Z,97376.54
2022-10-13T11:33:39.467Z,97355.63
2022-10-13T11:43:53.246Z,97344.02
2022-10-13T11:54:19.833Z,97331.11
2022-10-13T12:04:25.776Z,97323.65
2022-10-13T12:14:43.965Z,97319.02
2022-10-13T12:24:59.373Z,97312.14
2022-10-13T12:35:26.276Z,97304.61
2022-10-13T12:45:34.961Z,97300.24
2022-10-13T12:56:01.960Z,97294.65
2022-10-13T13:06:09.511Z,97295.72
2022-10-13T13:16:22.304Z,97290.06
2022-10-13T13:26:26.894Z,97286.20
2022-10-13T13:36:31.724Z,97286.39
2022-10-13T13:46:35.851Z,97296.41
2022-10-13T13:56:39.728Z,97290.66
2022-10-13T14:06:43.491Z,97290.41
2022-10-13T14:16:47.655Z,97290.07
2022-10-13T14:26:51.735Z,97286.14
2022-10-13T14:36:55.609Z,97284.61
2022-10-13T14:46:59.673Z,97279.91
2022-10-13T14:57:06.516Z,97279.84
2022-10-13T15:07:10.410Z,97275.64
2022-10-13T15:17:14.358Z,97274.71
2022-10-13T15:27:18.228Z,97271.90
2022-10-13T15:37:21.889Z,97268.65
2022-10-13T15:47:26.490Z,97269.30
2022-10-13T15:57:31.914Z,97272.09
2022-10-13T16:07:36.290Z,97278.41
2022-10-13T16:17:40.342Z,97281.02
2022-10-13T16:27:44.722Z,97278.91
2022-10-13T16:37:48.583Z,97279.14
2022-10-13T16:47:52.764Z,97276.60
2022-10-13T16:57:56.852Z,97273.66
2022-10-13T17:08:00.617Z,97281.70
2022-10-13T17:18:04.898Z,97271.29
2022-10-13T17:28:08.865Z,97279.09
2022-10-13T17:38:13.346Z,97288.98
2022-10-13T17:48:23.030Z,97283.99
2022-10-13T17:58:30.761Z,97279.89
2022-10-13T18:08:35.209Z,97272.52
2022-10-13T18:18:40.320Z,97273.45
2022-10-13T18:28:49.429Z,97277.30
2022-10-13T18:39:02.204Z,97280.09
2022-10-13T18:49:09.711Z,97278.10
2022-10-13T18:59:16.035Z,97282.55
2022-10-13T19:09:22.511Z,97279.67
2022-10-13T19:19:27.534Z,97275.60
2022-10-13T19:29:35.845Z,97275.40
2022-10-13T19:39:43.380Z,97279.57
2022-10-13T19:49:48.890Z,97275.56
2022-10-13T19:59:54.300Z,97280.48
2022-10-13T20:09:59.521Z,97282.83
2022-10-13T20:20:06.311Z,97283.93
2022-10-13T20:30:11.832Z,97280.54
2022-10-13T20:40:15.911Z,97278.00
2022-10-13T20:50:19.888Z,97270.64
2022-10-13T21:00:24.108Z,97266.59
2022-10-13T21:10:28.041Z,97269.20
2022-10-13T21:20:32.017Z,97270.41
2022-10-13T21:30:37.835Z,97268.56
2022-10-13T21:40:41.902Z,97266.55
2022-10-13T21:50:46.693Z,97260.89
2022-10-13T22:00:50.405Z,97253.94
2022-10-13T22:10:57.474Z,97256.95
2022-10-13T22:21:06.660Z,97259.95
2022-10-13T22:31:12.924Z,97257.39
2022-10-13T22:41:18.477Z,97258.55
2022-10-13T22:51:24.971Z,97261.85
2022-10-13T23:01:28.835Z,97267.55
2022-10-13T23:11:32.907Z,97267.54
2022-10-13T23:21:37.094Z,97261.36
2022-10-13T23:31:41.467Z,97259.16
2022-10-13T23:41:45.241Z,97253.20
2022-10-13T23:51:49.927Z,97242.21
